Time;durP1;ratioP1;P1;durP2;ratioP2;P2;SDS_P1;SDS_P2;PMS_P1;PMS_P2;Temp;Humidity;BMP_temperature;BMP_pressure;BME280_temperature;BME280_humidity;BME280_pressure;Samples;Min_cycle;Max_cycle;Signal;HPM_P1;HPM_P2
2023/06/17 00:00:58;;;;;;;10.73;6.85;;;;;;;15.83;72.12;101569.06;5000368;28;20026;-71
2023/06/17 00:03:23;;;;;;;13.32;6.25;;;;;;;15.70;73.47;101564.53;5007370;28;20092;-71
2023/06/17 00:05:49;;;;;;;12.40;6.75;;;;;;;15.66;73.81;101569.47;4986209;28;20030;-71
2023/06/17 00:08:14;;;;;;;11.40;5.90;;;;;;;15.63;74.59;101575.28;5003023;28;20034;-71
2023/06/17 00:10:40;;;;;;;12.73;6.00;;;;;;;15.65;75.65;101572.41;4985168;28;20072;-71
2023/06/17 00:13:07;;;;;;;10.68;5.82;;;;;;;15.56;74.42;101569.94;5005372;28;20081;-71
2023/06/17 00:15:33;;;;;;;11.52;6.22;;;;;;;15.50;75.69;101568.09;5003695;28;20121;-72
2023/06/17 00:18:00;;;;;;;10.23;5.55;;;;;;;15.48;74.09;101559.44;5002797;28;20551;-71
2023/06/17 00:20:25;;;;;;;10.50;6.10;;;;;;;15.46;72.75;101555.28;5001862;28;20037;-71
2023/06/17 00:22:52;;;;;;;13.90;7.13;;;;;;;15.42;73.15;101559.44;5003208;28;20025;-71
2023/06/17 00:25:18;;;;;;;11.20;6.70;;;;;;;15.32;71.82;101554.50;5002031;28;20034;-71
2023/06/17 00:27:43;;;;;;;8.70;5.25;;;;;;;15.26;74.22;101553.47;4999514;28;20040;-71
2023/06/17 00:30:09;;;;;;;11.05;6.80;;;;;;;15.20;74.69;101558.88;4986238;28;20149;-71
2023/06/17 00:32:36;;;;;;;9.55;6.07;;;;;;;15.03;77.44;101536.97;5003137;28;20047;-71
2023/06/17 00:35:05;;;;;;;10.82;6.53;;;;;;;15.10;78.89;101557.44;5003766;28;20049;-71
2023/06/17 00:37:31;;;;;;;11.82;5.78;;;;;;;15.06;78.94;101553.53;5002924;28;20053;-71
2023/06/17 00:39:57;;;;;;;11.43;5.82;;;;;;;15.08;79.25;101550.63;5004213;28;20526;-71
2023/06/17 00:42:22;;;;;;;13.18;6.88;;;;;;;15.06;79.09;101550.84;5000251;28;20121;-71
2023/06/17 00:44:48;;;;;;;10.15;6.18;;;;;;;15.02;81.07;101557.66;5003213;28;20030;-71
2023/06/17 00:47:14;;;;;;;11.45;6.65;;;;;;;14.95;80.35;101556.84;5002017;28;20036;-71
2023/06/17 00:49:42;;;;;;;8.98;5.25;;;;;;;14.98;79.02;101559.09;5002870;28;20022;-71
2023/06/17 00:52:10;;;;;;;11.55;6.15;;;;;;;14.96;78.74;101560.34;5004169;28;20029;-71
2023/06/17 00:54:41;;;;;;;11.98;7.03;;;;;;;15.02;75.58;101554.97;5003724;28;20108;-71
2023/06/17 00:57:13;;;;;;;12.90;6.43;;;;;;;15.00;78.17;101551.66;5003404;28;20030;-71
2023/06/17 00:59:39;;;;;;;12.13;5.93;;;;;;;14.91;77.83;101555.63;5002703;28;20382;-71
2023/06/17 01:02:06;;;;;;;11.55;7.40;;;;;;;14.81;77.78;101552.50;4999732;28;20022;-71
2023/06/17 01:04:33;;;;;;;14.38;6.88;;;;;;;14.77;78.16;101548.59;4983145;28;20085;-71
2023/06/17 01:07:09;;;;;;;14.82;7.32;;;;;;;14.76;78.65;101546.94;5003477;28;20600;-71
2023/06/17 01:09:38;;;;;;;13.70;6.07;;;;;;;14.73;76.34;101542.81;5003442;28;20042;-71
2023/06/17 01:12:07;;;;;;;10.45;6.40;;;;;;;14.66;77.07;101545.47;5001943;28;20122;-71
2023/06/17 01:14:33;;;;;;;11.35;6.55;;;;;;;14.67;78.42;101544.47;5002625;28;20398;-71
2023/06/17 01:17:00;;;;;;;12.65;6.18;;;;;;;14.59;79.14;101546.50;5004487;28;20029;-71
2023/06/17 01:19:26;;;;;;;14.45;6.97;;;;;;;14.52;77.60;101532.25;5000043;28;20032;-71
2023/06/17 01:21:53;;;;;;;13.40;6.53;;;;;;;14.51;77.48;101546.69;5004217;28;20115;-71
2023/06/17 01:24:33;;;;;;;12.57;7.18;;;;;;;14.51;78.53;101544.00;5003866;28;20046;-71
2023/06/17 01:27:00;;;;;;;10.90;6.82;;;;;;;14.49;80.04;101544.22;5000670;28;20065;-71
2023/06/17 01:29:30;;;;;;;15.23;7.78;;;;;;;14.44;80.22;101544.00;4984551;28;20128;-71
2023/06/17 01:31:59;;;;;;;12.77;7.13;;;;;;;14.33;80.42;101537.41;5003913;28;20619;-72
2023/06/17 01:34:34;;;;;;;13.30;7.72;;;;;;;14.29;82.23;101541.50;5000783;28;20061;-71
2023/06/17 01:37:03;;;;;;;12.95;6.38;;;;;;;14.20;83.58;101532.84;5002630;28;20034;-71
2023/06/17 01:39:32;;;;;;;10.63;6.25;;;;;;;14.21;83.94;101533.66;5002987;28;20474;-71
2023/06/17 01:41:59;;;;;;;13.18;7.28;;;;;;;14.19;84.01;101533.84;5003627;28;20026;-71
2023/06/17 01:44:27;;;;;;;16.50;8.93;;;;;;;14.17;82.97;101530.56;4986665;28;20367;-71
2023/06/17 01:46:52;;;;;;;16.38;8.60;;;;;;;14.18;81.59;101531.38;4998522;28;20045;-71
2023/06/17 01:49:18;;;;;;;14.93;7.43;;;;;;;14.08;82.78;101529.09;5005414;28;20038;-71
2023/06/17 01:51:43;;;;;;;16.55;8.98;;;;;;;14.08;81.89;101530.94;5000391;28;20034;-71
2023/06/17 01:54:08;;;;;;;14.63;8.38;;;;;;;14.14;82.48;101535.50;5000847;28;20121;-71
2023/06/17 01:56:34;;;;;;;14.40;7.72;;;;;;;14.12;84.24;101532.19;5003135;28;20029;-71
2023/06/17 01:58:59;;;;;;;17.10;8.00;;;;;;;14.09;86.08;101533.41;5005459;28;20029;-71
2023/06/17 02:01:26;;;;;;;14.57;9.00;;;;;;;13.95;87.42;101515.66;5005276;28;20018;-71
2023/06/17 02:03:51;;;;;;;12.25;8.32;;;;;;;14.08;86.55;101530.94;4982857;28;20453;-71
2023/06/17 02:06:17;;;;;;;14.45;8.88;;;;;;;14.03;85.73;101528.88;5004943;28;20108;-71
2023/06/17 02:08:44;;;;;;;15.35;7.50;;;;;;;14.01;85.00;101536.28;5003181;28;20048;-71
2023/06/17 02:11:09;;;;;;;16.27;8.52;;;;;;;13.86;83.66;101527.56;5002392;28;20485;-71
2023/06/17 02:13:34;;;;;;;14.95;8.48;;;;;;;13.87;83.20;101539.97;5003884;28;20041;-71
2023/06/17 02:16:00;;;;;;;17.17;9.43;;;;;;;13.84;82.71;101529.66;4998682;28;20038;-71
2023/06/17 02:18:25;;;;;;;13.63;8.07;;;;;;;13.84;82.81;101532.34;5001849;28;20072;-71
2023/06/17 02:20:51;;;;;;;15.90;8.80;;;;;;;13.84;82.96;101535.84;5002139;28;20034;-71
2023/06/17 02:23:16;;;;;;;12.88;8.32;;;;;;;13.74;84.21;101530.84;5000955;28;20121;-71
2023/06/17 02:25:42;;;;;;;18.08;8.73;;;;;;;13.76;85.42;101533.34;5002016;28;20045;-71
2023/06/17 02:28:07;;;;;;;15.95;9.38;;;;;;;13.72;85.60;101527.53;5001595;28;20041;-71
2023/06/17 02:30:33;;;;;;;16.65;8.57;;;;;;;13.69;85.61;101527.94;5002962;28;20037;-71
2023/06/17 02:33:00;;;;;;;15.00;8.90;;;;;;;13.63;85.66;101519.88;5003162;28;20053;-71
2023/06/17 02:35:26;;;;;;;14.55;9.18;;;;;;;13.55;85.10;101521.69;5000623;28;20401;-71
2023/06/17 02:37:53;;;;;;;15.32;7.80;;;;;;;13.52;87.55;101524.78;5000195;28;20516;-71
2023/06/17 02:40:19;;;;;;;14.63;8.38;;;;;;;13.44;88.20;101522.28;5001524;28;20044;-71
2023/06/17 02:42:45;;;;;;;13.07;7.45;;;;;;;13.41;88.65;101514.63;5001217;28;20029;-71
2023/06/17 02:45:13;;;;;;;14.38;7.95;;;;;;;13.37;88.72;101500.81;4999982;28;20040;-71
2023/06/17 02:47:40;;;;;;;17.17;10.10;;;;;;;13.44;88.70;101513.38;4985577;28;20053;-71
2023/06/17 02:50:07;;;;;;;18.88;9.30;;;;;;;13.44;87.30;101514.25;4999819;28;20041;-71
2023/06/17 02:52:34;;;;;;;16.08;9.52;;;;;;;13.45;86.05;101510.53;5004230;28;20054;-71
2023/06/17 02:54:59;;;;;;;16.17;9.48;;;;;;;13.48;85.96;101511.97;5000413;28;20065;-71
2023/06/17 02:57:25;;;;;;;15.48;8.55;;;;;;;13.41;83.64;101503.06;5001641;28;20030;-71
2023/06/17 02:59:50;;;;;;;14.00;9.23;;;;;;;13.40;83.53;101504.13;4982514;28;20478;-71
2023/06/17 03:02:16;;;;;;;13.52;9.00;;;;;;;13.35;85.12;101499.34;5000284;28;20034;-71
2023/06/17 03:04:41;;;;;;;16.58;9.18;;;;;;;13.33;87.37;101496.84;4999645;28;20030;-71
2023/06/17 03:07:06;;;;;;;15.57;9.00;;;;;;;13.32;87.47;101502.44;5000437;28;20465;-71
2023/06/17 03:09:32;;;;;;;16.17;9.52;;;;;;;13.29;87.62;101498.28;4996576;28;20143;-71
2023/06/17 03:12:02;;;;;;;15.48;8.55;;;;;;;13.34;87.04;101508.41;5002824;28;20038;-71
2023/06/17 03:14:29;;;;;;;14.88;9.10;;;;;;;13.33;88.30;101496.03;4998717;28;20523;-71
2023/06/17 03:16:57;;;;;;;16.45;10.20;;;;;;;13.33;88.19;101498.72;4998267;28;20061;-71
2023/06/17 03:19:23;;;;;;;18.83;10.63;;;;;;;13.25;87.95;101501.53;4998079;28;20064;-71
2023/06/17 03:21:49;;;;;;;16.85;9.50;;;;;;;13.11;89.21;101490.75;5003010;28;20120;-71
2023/06/17 03:24:15;;;;;;;17.40;9.85;;;;;;;13.12;88.02;101497.75;5000395;28;20037;-71
2023/06/17 03:26:40;;;;;;;16.40;9.50;;;;;;;13.07;88.31;101496.69;4997222;28;20089;-71
2023/06/17 03:29:06;;;;;;;19.27;10.32;;;;;;;13.10;88.44;101493.63;4998795;28;20026;-72
2023/06/17 03:31:31;;;;;;;18.05;10.20;;;;;;;13.12;88.99;101503.09;5001626;28;20132;-72
2023/06/17 03:33:57;;;;;;;15.50;9.77;;;;;;;13.15;88.67;101497.38;4999230;28;20170;-71
2023/06/17 03:36:28;;;;;;;17.27;10.68;;;;;;;13.17;88.95;101499.84;5003897;28;20061;-71
2023/06/17 03:38:53;;;;;;;17.83;11.05;;;;;;;13.17;87.77;101499.84;5003677;28;20499;-71
2023/06/17 03:41:19;;;;;;;18.00;9.45;;;;;;;13.08;87.19;101476.94;4981445;28;20129;-71
2023/06/17 03:43:44;;;;;;;23.75;11.25;;;;;;;13.10;87.68;101502.50;4999422;28;20117;-71
2023/06/17 03:46:10;;;;;;;17.67;10.45;;;;;;;13.10;88.85;101494.47;4996124;28;20034;-71
2023/06/17 03:48:35;;;;;;;15.80;10.02;;;;;;;13.13;88.93;101498.59;4997702;28;20038;-71
2023/06/17 03:51:02;;;;;;;20.10;10.45;;;;;;;13.14;89.43;101497.56;5002685;28;20432;-71
2023/06/17 03:53:27;;;;;;;15.05;9.55;;;;;;;13.12;89.39;101491.56;4999751;28;20554;-71
2023/06/17 03:55:53;;;;;;;17.38;9.48;;;;;;;13.15;89.34;101494.69;4999666;28;20109;-71
2023/06/17 03:58:18;;;;;;;17.15;9.25;;;;;;;13.18;88.55;101493.47;4997215;28;20036;-71
2023/06/17 04:00:43;;;;;;;14.68;8.80;;;;;;;13.23;88.20;101495.53;5001185;28;20507;-71
2023/06/17 04:03:11;;;;;;;14.77;9.23;;;;;;;13.30;88.10;101496.44;4995382;28;20120;-71
2023/06/17 04:05:37;;;;;;;17.48;9.98;;;;;;;13.30;88.94;101493.75;4998283;28;20088;-71
2023/06/17 04:08:04;;;;;;;20.00;10.82;;;;;;;13.25;90.15;101498.84;5003818;28;20911;-71
2023/06/17 04:10:29;;;;;;;23.38;10.77;;;;;;;13.27;91.70;101491.47;4994252;28;20046;-72
2023/06/17 04:12:55;;;;;;;21.58;11.13;;;;;;;13.31;91.65;101501.59;4999695;28;20408;-71
2023/06/17 04:15:20;;;;;;;19.80;11.43;;;;;;;13.43;91.92;101498.34;4981805;28;20033;-71
2023/06/17 04:17:46;;;;;;;17.98;10.85;;;;;;;13.44;92.83;101497.31;4978893;28;20485;-71
2023/06/17 04:20:12;;;;;;;19.23;10.57;;;;;;;13.45;94.83;101497.13;5000447;28;20358;-71
2023/06/17 04:22:41;;;;;;;20.33;11.13;;;;;;;13.41;95.35;101498.53;5001797;28;20022;-71
2023/06/17 04:25:10;;;;;;;19.50;10.80;;;;;;;13.43;94.88;101507.22;4998573;28;20507;-71
2023/06/17 04:27:36;;;;;;;20.10;11.60;;;;;;;13.50;94.59;101500.03;5000290;28;20058;-71
2023/06/17 04:30:03;;;;;;;19.50;12.50;;;;;;;13.57;93.98;101500.03;5002113;28;20126;-71
2023/06/17 04:32:29;;;;;;;20.98;12.90;;;;;;;13.73;92.04;101490.84;4996753;28;20054;-71
2023/06/17 04:34:55;;;;;;;20.70;12.30;;;;;;;13.78;91.43;101499.09;4996828;28;20664;-72
2023/06/17 04:37:20;;;;;;;18.17;11.40;;;;;;;13.93;91.34;101499.75;5000253;28;20065;-71
2023/06/17 04:39:46;;;;;;;21.55;11.07;;;;;;;14.08;90.52;101493.41;4997172;28;20069;-71
2023/06/17 04:42:16;;;;;;;25.25;13.13;;;;;;;14.62;89.26;101490.56;4995843;28;20030;-71
2023/06/17 04:44:41;;;;;;;24.48;13.25;;;;;;;15.11;88.01;101485.72;4999555;28;20026;-71
2023/06/17 04:47:09;;;;;;;25.58;12.60;;;;;;;15.23;87.28;101485.91;4999905;28;20065;-71
2023/06/17 04:49:38;;;;;;;27.33;11.43;;;;;;;15.18;86.11;101483.84;5000617;28;20102;-71
2023/06/17 04:52:13;;;;;;;28.35;13.20;;;;;;;15.28;84.97;101494.16;5000922;28;20026;-71
2023/06/17 04:54:40;;;;;;;23.60;12.45;;;;;;;15.16;85.25;101498.53;5000510;28;20041;-71
2023/06/17 04:57:06;;;;;;;23.00;11.88;;;;;;;15.06;85.88;101505.19;4984988;28;20492;-71
2023/06/17 04:59:32;;;;;;;22.17;13.20;;;;;;;15.00;85.68;101505.16;5001400;28;20065;-71
2023/06/17 05:01:57;;;;;;;22.48;13.93;;;;;;;15.01;85.52;101506.81;5002084;28;20030;-71
2023/06/17 05:04:23;;;;;;;26.30;12.85;;;;;;;14.91;84.94;101488.47;5004096;28;20037;-71
2023/06/17 05:06:48;;;;;;;29.48;14.02;;;;;;;15.44;84.40;101500.91;5000234;28;20026;-71
2023/06/17 05:09:14;;;;;;;23.35;12.40;;;;;;;16.05;80.77;101508.47;5001708;28;20081;-71
2023/06/17 05:11:40;;;;;;;24.80;14.02;;;;;;;16.10;79.77;101500.59;5003104;28;20132;-71
2023/06/17 05:14:06;;;;;;;25.38;13.73;;;;;;;16.04;79.76;101500.66;5002912;28;20041;-71
2023/06/17 05:16:32;;;;;;;29.10;12.32;;;;;;;15.96;80.31;101504.41;5001038;28;20030;-71
2023/06/17 05:18:57;;;;;;;22.50;12.95;;;;;;;15.94;81.18;101507.31;5002534;28;20040;-71
2023/06/17 05:21:23;;;;;;;21.98;14.15;;;;;;;16.06;80.62;101512.00;5000381;28;20050;-71
2023/06/17 05:23:48;;;;;;;23.48;12.50;;;;;;;16.05;80.78;101503.09;5000043;28;20620;-71
2023/06/17 05:26:14;;;;;;;20.23;12.65;;;;;;;16.01;81.14;101499.22;5001385;28;20609;-71
2023/06/17 05:28:40;;;;;;;21.75;12.85;;;;;;;16.03;81.40;101507.88;5003558;28;20041;-71
2023/06/17 05:31:05;;;;;;;21.35;12.57;;;;;;;16.08;81.26;101499.97;5003836;28;20381;-71
2023/06/17 05:33:30;;;;;;;22.92;13.25;;;;;;;16.14;82.24;101507.19;5002954;28;20452;-71
2023/06/17 05:36:00;;;;;;;23.50;12.38;;;;;;;16.19;82.40;101495.75;5001795;28;20030;-72
2023/06/17 05:38:26;;;;;;;22.45;12.82;;;;;;;16.25;82.56;101500.28;4999859;28;20030;-71
2023/06/17 05:40:51;;;;;;;22.02;13.77;;;;;;;16.40;83.38;101502.63;5003501;28;20037;-71
2023/06/17 05:43:16;;;;;;;20.92;14.52;;;;;;;16.47;83.18;101502.59;5000403;28;20034;-71
2023/06/17 05:45:42;;;;;;;21.35;14.43;;;;;;;16.49;83.96;101492.44;4999885;28;20133;-71
2023/06/17 05:48:07;;;;;;;23.92;13.38;;;;;;;16.70;83.04;101504.69;5002212;28;20030;-71
2023/06/17 05:50:32;;;;;;;23.65;14.50;;;;;;;16.82;82.87;101505.63;4997314;28;20115;-71
2023/06/17 05:52:58;;;;;;;21.90;14.50;;;;;;;16.92;82.36;101505.94;5002977;28;20037;-71
2023/06/17 05:55:23;;;;;;;27.13;15.95;;;;;;;17.04;81.96;101506.84;5006451;28;20022;-71
2023/06/17 05:57:49;;;;;;;20.83;13.70;;;;;;;17.16;82.08;101503.41;5000047;28;20038;-71
2023/06/17 06:00:15;;;;;;;21.48;14.45;;;;;;;17.31;80.75;101510.06;5000776;28;20064;-71
2023/06/17 06:02:40;;;;;;;26.42;16.13;;;;;;;17.40;80.81;101507.91;4999720;28;20026;-72
2023/06/17 06:05:07;;;;;;;23.60;16.50;;;;;;;17.41;81.01;101509.53;5000963;28;20495;-72
2023/06/17 06:07:32;;;;;;;23.08;17.13;;;;;;;17.48;80.96;101514.88;5000225;28;20033;-72
2023/06/17 06:09:57;;;;;;;31.98;20.33;;;;;;;17.48;81.28;101512.19;4997796;28;20038;-72
2023/06/17 06:12:23;;;;;;;28.45;23.08;;;;;;;17.51;81.57;101517.13;4999453;28;20074;-72
2023/06/17 06:14:49;;;;;;;30.50;19.42;;;;;;;17.53;80.34;101513.13;5000640;28;20030;-71
2023/06/17 06:17:14;;;;;;;25.35;18.20;;;;;;;17.60;80.43;101513.03;4999159;28;20148;-71
2023/06/17 06:19:40;;;;;;;24.17;16.33;;;;;;;17.63;79.76;101509.06;5002705;28;20129;-71
2023/06/17 06:22:05;;;;;;;22.27;14.13;;;;;;;17.73;79.50;101512.03;5002508;28;20034;-71
2023/06/17 06:24:30;;;;;;;21.23;14.80;;;;;;;17.79;78.37;101511.19;4999789;28;20031;-71
2023/06/17 06:26:56;;;;;;;20.42;13.05;;;;;;;17.83;79.75;101514.25;5002184;28;20034;-71
2023/06/17 06:29:22;;;;;;;23.05;15.15;;;;;;;17.90;78.93;101512.28;5000031;28;20041;-71
2023/06/17 06:31:47;;;;;;;28.05;15.20;;;;;;;17.96;79.08;101514.88;5005554;28;20053;-72
2023/06/17 06:34:12;;;;;;;19.30;13.20;;;;;;;18.04;78.45;101507.50;4998361;28;20030;-71
2023/06/17 06:36:38;;;;;;;20.05;14.25;;;;;;;18.10;77.85;101510.13;5000457;28;20040;-72
2023/06/17 06:39:03;;;;;;;20.08;13.60;;;;;;;18.16;78.61;101511.88;5000001;28;20040;-72
2023/06/17 06:41:28;;;;;;;21.48;13.90;;;;;;;18.23;80.07;101516.34;4998662;28;20422;-72
2023/06/17 06:43:54;;;;;;;20.35;13.80;;;;;;;18.28;78.11;101517.31;5001944;28;20033;-72
2023/06/17 06:46:19;;;;;;;20.83;14.05;;;;;;;18.31;78.06;101519.56;4995901;28;20023;-72
2023/06/17 06:48:45;;;;;;;21.13;13.70;;;;;;;18.35;76.44;101512.63;4998098;28;20085;-72
2023/06/17 06:51:10;;;;;;;19.90;13.57;;;;;;;18.45;76.27;101520.16;5001503;28;20030;-72
2023/06/17 06:53:36;;;;;;;24.92;15.90;;;;;;;18.51;74.52;101511.13;5002438;28;20106;-72
2023/06/17 06:56:01;;;;;;;21.38;12.60;;;;;;;18.56;74.11;101521.22;5006698;28;20037;-72
2023/06/17 06:58:26;;;;;;;25.58;13.32;;;;;;;18.66;75.07;101513.38;5009356;28;20420;-72
2023/06/17 07:00:52;;;;;;;24.23;14.73;;;;;;;18.71;75.84;101516.19;5006794;28;20038;-73
2023/06/17 07:03:18;;;;;;;20.67;13.52;;;;;;;18.83;76.24;101513.50;4990571;28;20034;-74
2023/06/17 07:05:43;;;;;;;22.13;14.75;;;;;;;18.91;75.34;101506.94;4990909;28;20038;-74
2023/06/17 07:08:08;;;;;;;18.45;11.65;;;;;;;18.95;73.09;101505.41;4990132;28;20033;-73
2023/06/17 07:10:39;;;;;;;19.63;11.77;;;;;;;19.02;71.45;101519.59;4990059;28;20666;-73
2023/06/17 07:13:05;;;;;;;19.42;12.18;;;;;;;19.07;71.01;101511.59;4990282;28;20037;-73
2023/06/17 07:15:30;;;;;;;18.85;10.77;;;;;;;19.13;68.51;101509.88;4972914;28;20386;-72
2023/06/17 07:17:55;;;;;;;22.65;11.65;;;;;;;19.19;68.66;101509.72;4990167;28;20038;-73
2023/06/17 07:20:20;;;;;;;16.27;9.82;;;;;;;19.30;68.50;101510.75;4992936;28;20033;-73
2023/06/17 07:22:46;;;;;;;14.90;9.20;;;;;;;19.36;65.35;101509.81;4990721;28;20105;-73
2023/06/17 07:25:11;;;;;;;14.65;8.35;;;;;;;19.41;63.31;101507.22;4976042;28;20484;-73
2023/06/17 07:27:37;;;;;;;15.98;8.45;;;;;;;19.49;63.23;101500.56;4993097;28;20034;-73
2023/06/17 07:30:02;;;;;;;16.13;8.38;;;;;;;19.59;61.67;101513.50;4993304;28;20018;-74
2023/06/17 07:32:28;;;;;;;12.90;7.00;;;;;;;19.68;63.78;101514.81;4992878;28;20093;-73
2023/06/17 07:34:53;;;;;;;17.52;8.90;;;;;;;19.74;62.53;101504.91;4975180;28;20397;-73
2023/06/17 07:37:19;;;;;;;15.60;8.05;;;;;;;19.80;61.86;101512.03;4991959;28;20042;-73
2023/06/17 07:39:46;;;;;;;13.93;7.78;;;;;;;19.83;62.77;101506.97;4991512;28;20125;-74
2023/06/17 07:42:13;;;;;;;16.10;7.75;;;;;;;19.86;59.67;101502.97;4993251;28;20021;-72
2023/06/17 07:44:38;;;;;;;13.82;7.15;;;;;;;20.03;61.29;101511.94;4993588;28;20038;-74
2023/06/17 07:47:04;;;;;;;13.00;7.13;;;;;;;20.08;59.27;101511.19;4975328;28;20042;-73
2023/06/17 07:49:31;;;;;;;12.38;7.90;;;;;;;20.11;57.80;101506.09;4993208;28;20030;-74
2023/06/17 07:51:57;;;;;;;12.55;6.22;;;;;;;20.19;55.83;101504.06;4991639;28;20042;-73
2023/06/17 07:54:22;;;;;;;11.35;5.30;;;;;;;20.25;56.12;101503.94;4991590;28;20117;-74
2023/06/17 07:56:47;;;;;;;10.82;6.07;;;;;;;20.32;57.57;101506.47;4992693;28;20132;-73
2023/06/17 07:59:13;;;;;;;8.68;5.72;;;;;;;20.40;54.75;101507.94;4992199;28;20109;-73
2023/06/17 08:01:39;;;;;;;11.73;7.00;;;;;;;20.45;54.13;101494.47;4991656;28;20060;-73
2023/06/17 08:04:04;;;;;;;9.55;6.35;;;;;;;20.56;54.92;101496.31;4993457;28;20030;-73
2023/06/17 08:06:30;;;;;;;11.32;6.32;;;;;;;20.66;55.53;101507.31;4993171;28;20029;-74
2023/06/17 08:08:55;;;;;;;14.43;5.78;;;;;;;20.79;52.13;101493.41;4993097;28;20360;-74
2023/06/17 08:11:21;;;;;;;10.32;5.80;;;;;;;21.12;51.98;101499.00;4993064;28;20043;-73
2023/06/17 08:13:46;;;;;;;11.38;5.93;;;;;;;22.59;48.58;101493.47;4992089;28;20096;-74
2023/06/17 08:16:12;;;;;;;13.52;7.65;;;;;;;24.05;45.97;101489.97;4975093;28;20035;-74
2023/06/17 08:18:37;;;;;;;9.85;6.00;;;;;;;25.78;39.71;101490.63;4992912;28;20104;-74
2023/06/17 08:21:02;;;;;;;15.65;5.38;;;;;;;27.99;34.59;101491.84;4994199;28;20113;-74
2023/06/17 08:23:28;;;;;;;9.35;5.45;;;;;;;29.52;32.84;101486.22;4980198;28;20109;-75
2023/06/17 08:25:53;;;;;;;11.70;6.00;;;;;;;30.21;31.79;101491.47;4996081;28;20026;-74
2023/06/17 08:28:18;;;;;;;17.88;6.63;;;;;;;30.39;29.44;101483.34;4996731;28;20631;-75
2023/06/17 08:30:44;;;;;;;12.82;6.82;;;;;;;31.61;27.55;101487.31;4994980;28;20702;-75
2023/06/17 08:33:09;;;;;;;11.85;6.72;;;;;;;32.84;27.67;101480.41;4997491;28;20049;-75
2023/06/17 08:35:35;;;;;;;9.35;5.97;;;;;;;33.47;25.45;101483.31;4995678;28;20049;-75
2023/06/17 08:38:01;;;;;;;9.90;5.97;;;;;;;34.44;23.97;101482.06;4994578;28;21292;-75
2023/06/17 08:40:27;;;;;;;15.57;7.15;;;;;;;34.55;22.39;101483.25;4995748;28;20073;-75
2023/06/17 08:43:01;;;;;;;10.00;5.10;;;;;;;34.99;24.65;101485.47;4995790;28;20103;-75
2023/06/17 08:45:26;;;;;;;13.60;8.30;;;;;;;35.05;21.93;101475.75;4995885;28;20026;-75
2023/06/17 08:47:51;;;;;;;11.95;5.50;;;;;;;35.26;21.55;101475.63;4996964;28;20030;-75
2023/06/17 08:50:18;;;;;;;7.97;5.05;;;;;;;35.13;21.16;101477.63;4978441;28;20101;-75
2023/06/17 08:52:44;;;;;;;6.90;4.72;;;;;;;35.63;22.37;101483.88;4978161;28;20084;-75
2023/06/17 08:55:10;;;;;;;8.57;5.32;;;;;;;35.83;21.77;101480.09;4995870;28;20362;-75
2023/06/17 08:57:36;;;;;;;9.85;5.50;;;;;;;36.02;21.45;101473.06;4996439;28;20080;-75
2023/06/17 09:00:01;;;;;;;11.20;5.22;;;;;;;36.50;20.16;101476.69;4996187;28;20477;-75
2023/06/17 09:02:28;;;;;;;7.55;5.28;;;;;;;36.89;19.76;101472.13;4995057;28;20044;-75
2023/06/17 09:04:54;;;;;;;9.80;6.28;;;;;;;36.68;20.09;101472.44;4995498;28;20520;-75
2023/06/17 09:07:21;;;;;;;9.23;5.72;;;;;;;35.23;20.72;101484.66;4996475;28;20108;-75
2023/06/17 09:09:50;;;;;;;10.13;5.82;;;;;;;33.03;23.52;101471.72;4994716;28;20040;-75
2023/06/17 09:12:15;;;;;;;7.93;5.82;;;;;;;31.38;24.77;101475.63;4996705;28;20026;-75
2023/06/17 09:14:44;;;;;;;8.77;5.85;;;;;;;30.00;26.25;101482.09;4976191;28;20451;-75
2023/06/17 09:17:10;;;;;;;10.57;5.80;;;;;;;28.88;29.50;101477.13;4996057;28;20373;-75
2023/06/17 09:19:40;;;;;;;12.57;5.57;;;;;;;28.19;31.13;101472.28;4995943;28;20029;-75
2023/06/17 09:22:06;;;;;;;9.18;5.80;;;;;;;27.51;31.66;101476.38;4994192;28;20462;-75
2023/06/17 09:24:32;;;;;;;12.93;5.47;;;;;;;27.00;31.62;101472.31;4995686;28;20030;-75
2023/06/17 09:26:57;;;;;;;9.60;6.00;;;;;;;26.65;32.13;101474.38;4995733;28;20065;-75
2023/06/17 09:29:22;;;;;;;10.48;5.53;;;;;;;26.32;33.19;101477.94;4994407;28;20081;-75
2023/06/17 09:31:52;;;;;;;9.98;6.47;;;;;;;26.14;33.57;101477.53;4994669;28;20054;-74
2023/06/17 09:34:20;;;;;;;8.43;5.85;;;;;;;25.94;33.14;101472.25;4993625;28;20033;-74
2023/06/17 09:36:51;;;;;;;8.55;5.35;;;;;;;25.84;34.00;101475.88;4994933;28;20153;-74
2023/06/17 09:39:17;;;;;;;9.88;6.25;;;;;;;25.87;34.00;101475.31;4995185;28;20481;-74
2023/06/17 09:41:43;;;;;;;10.52;5.43;;;;;;;25.77;34.38;101473.41;4995318;28;20029;-75
2023/06/17 09:44:10;;;;;;;7.70;4.90;;;;;;;25.74;31.24;101479.47;4996249;28;20493;-75
2023/06/17 09:46:37;;;;;;;14.55;4.97;;;;;;;25.76;33.55;101473.72;4994712;28;20473;-74
2023/06/17 09:49:15;;;;;;;11.95;5.63;;;;;;;25.78;33.58;101469.59;4996223;28;20484;-74
2023/06/17 09:51:41;;;;;;;10.20;6.47;;;;;;;25.77;34.94;101475.34;4994577;28;20478;-75
2023/06/17 09:54:07;;;;;;;10.32;6.18;;;;;;;25.79;34.69;101467.69;4993596;28;20030;-74
2023/06/17 09:56:34;;;;;;;12.15;6.63;;;;;;;25.87;35.45;101461.63;4996026;28;20160;-74
2023/06/17 09:59:00;;;;;;;10.82;5.95;;;;;;;25.89;35.04;101464.91;4994586;28;20022;-74
2023/06/17 10:01:30;;;;;;;11.52;7.15;;;;;;;25.91;34.95;101462.72;4993754;28;20500;-75
2023/06/17 10:04:02;;;;;;;11.75;5.93;;;;;;;25.97;34.38;101461.56;4996312;28;20030;-74
2023/06/17 10:06:34;;;;;;;8.05;5.55;;;;;;;26.02;35.78;101457.97;4993981;28;20027;-74
2023/06/17 10:09:05;;;;;;;10.52;6.13;;;;;;;25.93;33.99;101459.69;4994612;28;20112;-75
2023/06/17 10:11:33;;;;;;;12.45;6.07;;;;;;;25.88;33.61;101460.53;4994443;28;20393;-74
2023/06/17 10:14:06;;;;;;;8.57;5.25;;;;;;;25.96;35.11;101457.22;4992726;28;20036;-74
2023/06/17 10:16:36;;;;;;;8.98;5.15;;;;;;;26.09;38.83;101461.19;4993910;28;20092;-74
2023/06/17 10:19:05;;;;;;;8.27;5.68;;;;;;;26.14;35.01;101450.19;4993349;28;20034;-74
2023/06/17 10:21:33;;;;;;;8.23;5.15;;;;;;;26.21;35.68;101452.63;4993408;28;20031;-75
2023/06/17 10:24:01;;;;;;;10.00;4.63;;;;;;;26.25;33.06;101456.38;4993648;28;20029;-75
2023/06/17 10:26:28;;;;;;;10.25;5.43;;;;;;;26.01;33.21;101459.06;4993303;28;20041;-74
2023/06/17 10:28:53;;;;;;;7.15;4.63;;;;;;;26.08;34.29;101450.53;4994809;28;20017;-75
2023/06/17 10:31:32;;;;;;;10.83;5.23;;;;;;;26.08;34.83;101453.28;4994366;28;20030;-75
2023/06/17 10:34:01;;;;;;;8.02;4.82;;;;;;;26.09;34.50;101457.63;4994105;28;20358;-74
2023/06/17 10:36:31;;;;;;;8.38;4.53;;;;;;;26.15;35.24;101451.84;4993340;28;20525;-74
2023/06/17 10:39:03;;;;;;;17.60;6.00;;;;;;;26.01;34.25;101442.66;4992846;28;20026;-74
2023/06/17 10:41:55;;;;;;;12.40;5.80;;;;;;;26.17;33.74;101444.19;4992799;28;20110;-73
2023/06/17 10:44:28;;;;;;;6.05;5.03;;;;;;;26.24;34.54;101438.38;4977975;28;20506;-73
2023/06/17 10:46:55;;;;;;;8.55;5.18;;;;;;;26.16;33.70;101447.19;4989065;28;20061;-77
2023/06/17 10:49:20;;;;;;;10.93;5.88;;;;;;;26.22;33.58;101448.75;4993354;28;20058;-74
2023/06/17 10:51:49;;;;;;;7.90;5.07;;;;;;;26.24;33.59;101441.91;4991193;28;20108;-73
2023/06/17 10:54:15;;;;;;;9.95;5.53;;;;;;;26.37;32.81;101431.41;4991932;28;20045;-74
2023/06/17 10:56:49;;;;;;;6.57;4.72;;;;;;;26.56;33.27;101434.25;4994231;28;20119;-73
2023/06/17 10:59:15;;;;;;;8.77;5.40;;;;;;;26.53;31.26;101432.09;4991686;28;20037;-74
2023/06/17 11:01:41;;;;;;;7.53;5.13;;;;;;;26.43;33.02;101425.56;4992325;28;20025;-75
2023/06/17 11:04:12;;;;;;;7.63;4.70;;;;;;;26.54;32.22;101425.50;4994219;28;20389;-76
2023/06/17 11:06:37;;;;;;;9.20;4.13;;;;;;;26.66;33.17;101420.44;4992885;28;20101;-75
2023/06/17 11:09:04;;;;;;;11.43;5.22;;;;;;;26.79;32.48;101419.75;4976419;28;20191;-76
2023/06/17 11:11:30;;;;;;;5.72;3.72;;;;;;;26.85;33.28;101418.59;4973994;28;20457;-76
2023/06/17 11:13:55;;;;;;;6.18;4.03;;;;;;;26.90;29.75;101425.91;4993277;28;20121;-76